Time;durP1;ratioP1;P1;durP2;ratioP2;P2;SDS_P1;SDS_P2;PMS_P1;PMS_P2;Temp;Humidity;BMP_temperature;BMP_pressure;BME280_temperature;BME280_humidity;BME280_pressure;Samples;Min_cycle;Max_cycle;Signal;HPM_P1;HPM_P2
2023/01/16 00:02:23;;;;;;;7.10;6.70;;;1.00;99.90;;;;;;6125246;23;20385;-77
2023/01/16 00:04:50;;;;;;;7.75;7.35;;;1.00;99.90;;;;;;6151350;23;20377;-75
2023/01/16 00:07:16;;;;;;;7.95;7.50;;;1.00;99.90;;;;;;6151317;23;20437;-76
2023/01/16 00:09:43;;;;;;;8.30;7.80;;;0.90;99.90;;;;;;6149302;23;20385;-76
2023/01/16 00:12:10;;;;;;;8.60;8.10;;;1.00;99.90;;;;;;6125863;23;20445;-77
2023/01/16 00:14:37;;;;;;;7.30;6.90;;;1.00;99.90;;;;;;6149986;23;20441;-76
2023/01/16 00:17:04;;;;;;;7.33;6.93;;;1.10;99.90;;;;;;6125552;23;20385;-76
2023/01/16 00:19:33;;;;;;;6.72;6.32;;;1.30;99.90;;;;;;6125414;23;20455;-76
2023/01/16 00:22:00;;;;;;;6.20;5.90;;;1.40;99.90;;;;;;6125074;23;20719;-76
2023/01/16 00:24:27;;;;;;;6.20;5.90;;;1.60;99.90;;;;;;6150366;23;20374;-76
2023/01/16 00:26:54;;;;;;;5.88;5.50;;;1.70;99.90;;;;;;6151858;23;20723;-77
2023/01/16 00:29:21;;;;;;;6.45;6.10;;;1.70;99.90;;;;;;6125223;23;20401;-76
2023/01/16 00:31:48;;;;;;;7.65;7.25;;;1.60;99.90;;;;;;6151343;23;20402;-76
2023/01/16 00:34:14;;;;;;;8.85;8.25;;;1.70;99.90;;;;;;6125233;23;20374;-77
2023/01/16 00:36:42;;;;;;;9.18;8.60;;;1.80;99.90;;;;;;6149295;23;20742;-76
2023/01/16 00:39:09;;;;;;;7.63;7.18;;;1.80;99.90;;;;;;6151173;23;20688;-77
2023/01/16 00:41:36;;;;;;;7.18;6.78;;;1.80;99.90;;;;;;6124169;23;20414;-76
2023/01/16 00:44:03;;;;;;;6.60;6.20;;;1.80;99.90;;;;;;6150835;23;20442;-76
2023/01/16 00:46:30;;;;;;;7.05;6.65;;;1.60;99.90;;;;;;6124816;23;20377;-77
2023/01/16 00:48:57;;;;;;;6.95;6.55;;;1.70;99.90;;;;;;6152430;23;20384;-76
2023/01/16 00:51:24;;;;;;;7.40;6.93;;;1.70;99.90;;;;;;6151886;23;20702;-77
2023/01/16 00:53:51;;;;;;;7.03;6.63;;;1.70;99.90;;;;;;6127148;23;20370;-77
2023/01/16 00:56:18;;;;;;;6.30;6.00;;;1.70;99.90;;;;;;6127572;23;20444;-77
2023/01/16 00:58:44;;;;;;;6.30;6.00;;;1.60;99.90;;;;;;6126308;23;20751;-77
2023/01/16 01:01:11;;;;;;;6.15;5.85;;;1.60;99.90;;;;;;6127713;23;20454;-77
2023/01/16 01:03:40;;;;;;;8.50;7.00;;;1.60;99.90;;;;;;6126637;23;20448;-76
2023/01/16 01:06:11;;;;;;;7.05;6.57;;;1.50;99.90;;;;;;6127436;23;20504;-77
2023/01/16 01:08:38;;;;;;;6.85;6.45;;;1.30;99.90;;;;;;6126630;23;20437;-76
2023/01/16 01:11:13;;;;;;;10.05;9.15;;;1.20;99.90;;;;;;6153147;23;20373;-76
2023/01/16 01:13:40;;;;;;;7.90;7.40;;;1.00;99.90;;;;;;6150098;23;20437;-76
2023/01/16 01:16:08;;;;;;;8.25;7.45;;;1.00;99.90;;;;;;6152716;23;20385;-76
2023/01/16 01:18:35;;;;;;;8.43;7.93;;;1.00;99.90;;;;;;6151219;23;20766;-77
2023/01/16 01:21:03;;;;;;;7.70;7.30;;;1.00;99.90;;;;;;6152900;23;20410;-76
2023/01/16 01:23:30;;;;;;;8.88;8.27;;;1.00;99.90;;;;;;6152020;23;20447;-77
2023/01/16 01:25:57;;;;;;;8.07;7.57;;;1.40;99.90;;;;;;6126882;23;20399;-76
2023/01/16 01:28:24;;;;;;;7.85;7.43;;;1.40;99.90;;;;;;6126106;23;20441;-77
2023/01/16 01:30:51;;;;;;;6.63;6.32;;;1.40;99.90;;;;;;6152588;23;20676;-77
2023/01/16 01:33:18;;;;;;;6.97;6.57;;;1.30;99.90;;;;;;6152747;23;20429;-76
2023/01/16 01:35:45;;;;;;;6.97;6.57;;;1.20;99.90;;;;;;6151427;23;20405;-76
2023/01/16 01:38:12;;;;;;;7.10;6.70;;;1.10;99.90;;;;;;6127430;23;20718;-76
2023/01/16 01:40:39;;;;;;;7.87;7.27;;;1.10;99.90;;;;;;6125755;23;20370;-77
2023/01/16 01:43:13;;;;;;;8.27;7.63;;;1.10;99.90;;;;;;6152569;23;20425;-77
2023/01/16 01:45:47;;;;;;;27.63;10.07;;;1.00;99.90;;;;;;6151473;23;20759;-76
2023/01/16 01:48:17;;;;;;;17.35;8.73;;;0.80;99.90;;;;;;6152846;23;20440;-77
2023/01/16 01:50:58;;;;;;;57.17;13.90;;;0.80;99.90;;;;;;6125449;23;20452;-77
2023/01/16 01:54:14;;;;;;;78.80;15.50;;;0.80;99.90;;;;;;6152154;23;20429;-76
2023/01/16 01:56:55;;;;;;;74.10;18.52;;;0.80;99.90;;;;;;6131649;23;20499;-76
2023/01/16 01:59:27;;;;;;;86.38;21.15;;;0.60;99.90;;;;;;6151199;23;20420;-76
2023/01/16 02:01:55;;;;;;;20.88;11.63;;;0.50;99.90;;;;;;6126517;23;20496;-77
